sensor_id;sensor_type;location;lat;lon;timestamp;pressure;altitude;pressure_sealevel;temperature;humidity
71621;BME280;59471;42.254;23.102;2022-09-09T00:01:27;96154.81;;;17.17;73.04
71621;BME280;59471;42.254;23.102;2022-09-09T00:08:02;96136.53;;;17.09;73.60
71621;BME280;59471;42.254;23.102;2022-09-09T00:16:09;96133.81;;;17.22;72.77
71621;BME280;59471;42.254;23.102;2022-09-09T00:21:42;96138.56;;;17.07;73.50
71621;BME280;59471;42.254;23.102;2022-09-09T00:24:39;96137.78;;;17.00;73.27
71621;BME280;59471;42.254;23.102;2022-09-09T00:30:37;96144.41;;;17.22;72.35
71621;BME280;59471;42.254;23.102;2022-09-09T00:33:13;96140.84;;;17.42;72.07
71621;BME280;59471;42.254;23.102;2022-09-09T00:35:49;96139.75;;;17.11;73.26
71621;BME280;59471;42.254;23.102;2022-09-09T00:38:20;96134.53;;;16.98;73.41
71621;BME280;59471;42.254;23.102;2022-09-09T00:55:56;96121.97;;;16.93;73.23
71621;BME280;59471;42.254;23.102;2022-09-09T00:58:24;96131.97;;;16.84;73.53
71621;BME280;59471;42.254;23.102;2022-09-09T01:00:53;96134.72;;;17.03;72.83
71621;BME280;59471;42.254;23.102;2022-09-09T01:09:10;96130.56;;;16.75;73.99
71621;BME280;59471;42.254;23.102;2022-09-09T01:17:04;96145.63;;;16.68;73.96
71621;BME280;59471;42.254;23.102;2022-09-09T01:19:37;96147.44;;;16.81;73.72
71621;BME280;59471;42.254;23.102;2022-09-09T01:28:35;96147.63;;;16.79;72.59
71621;BME280;59471;42.254;23.102;2022-09-09T01:31:06;96145.66;;;16.48;74.21
71621;BME280;59471;42.254;23.102;2022-09-09T01:33:34;96140.75;;;16.52;73.80
71621;BME280;59471;42.254;23.102;2022-09-09T01:36:10;96152.56;;;16.56;73.33
71621;BME280;59471;42.254;23.102;2022-09-09T01:38:40;96151.75;;;16.49;73.65
71621;BME280;59471;42.254;23.102;2022-09-09T01:41:05;96139.50;;;16.74;72.91
71621;BME280;59471;42.254;23.102;2022-09-09T01:43:31;96145.81;;;16.60;73.07
71621;BME280;59471;42.254;23.102;2022-09-09T01:46:00;96136.72;;;16.29;73.97
71621;BME280;59471;42.254;23.102;2022-09-09T01:48:27;96132.25;;;16.30;74.50
71621;BME280;59471;42.254;23.102;2022-09-09T01:50:53;96121.09;;;16.28;74.29
71621;BME280;59471;42.254;23.102;2022-09-09T01:53:20;96123.50;;;16.29;73.40
71621;BME280;59471;42.254;23.102;2022-09-09T02:04:36;96128.38;;;16.32;73.91
71621;BME280;59471;42.254;23.102;2022-09-09T02:07:18;96123.31;;;16.31;73.47
71621;BME280;59471;42.254;23.102;2022-09-09T02:10:30;96123.31;;;16.31;73.91
71621;BME280;59471;42.254;23.102;2022-09-09T02:12:59;96115.00;;;16.27;74.01
71621;BME280;59471;42.254;23.102;2022-09-09T02:18:43;96125.72;;;16.45;73.31
71621;BME280;59471;42.254;23.102;2022-09-09T02:21:16;96127.81;;;16.24;74.21
71621;BME280;59471;42.254;23.102;2022-09-09T02:23:43;96127.81;;;16.30;74.09
71621;BME280;59471;42.254;23.102;2022-09-09T02:26:13;96126.97;;;16.30;74.33
71621;BME280;59471;42.254;23.102;2022-09-09T02:28:45;96118.03;;;16.37;74.15
71621;BME280;59471;42.254;23.102;2022-09-09T02:31:15;96113.47;;;16.58;73.53
71621;BME280;59471;42.254;23.102;2022-09-09T02:33:46;96118.78;;;16.58;73.50
71621;BME280;59471;42.254;23.102;2022-09-09T02:36:15;96121.88;;;16.41;74.32
71621;BME280;59471;42.254;23.102;2022-09-09T02:38:45;96128.00;;;16.22;74.88
71621;BME280;59471;42.254;23.102;2022-09-09T02:41:19;96131.47;;;16.09;76.11
71621;BME280;59471;42.254;23.102;2022-09-09T02:43:47;96137.16;;;16.13;75.74
71621;BME280;59471;42.254;23.102;2022-09-09T02:47:16;96144.06;;;16.14;76.17
71621;BME280;59471;42.254;23.102;2022-09-09T02:50:05;96148.97;;;16.24;75.49
71621;BME280;59471;42.254;23.102;2022-09-09T02:55:41;96146.47;;;16.35;74.79
71621;BME280;59471;42.254;23.102;2022-09-09T02:58:14;96141.63;;;16.19;75.76
71621;BME280;59471;42.254;23.102;2022-09-09T03:00:49;96139.19;;;16.24;74.33
71621;BME280;59471;42.254;23.102;2022-09-09T03:03:16;96136.78;;;16.03;74.78
71621;BME280;59471;42.254;23.102;2022-09-09T03:05:43;96129.84;;;16.15;75.20
71621;BME280;59471;42.254;23.102;2022-09-09T03:08:10;96132.09;;;16.05;74.80
71621;BME280;59471;42.254;23.102;2022-09-09T03:10:36;96122.34;;;15.98;74.83
71621;BME280;59471;42.254;23.102;2022-09-09T03:13:02;96132.31;;;15.83;75.65
71621;BME280;59471;42.254;23.102;2022-09-09T03:15:32;96140.22;;;15.96;75.18
71621;BME280;59471;42.254;23.102;2022-09-09T03:17:58;96135.97;;;15.95;75.84
71621;BME280;59471;42.254;23.102;2022-09-09T03:20:26;96140.00;;;15.98;75.42
71621;BME280;59471;42.254;23.102;2022-09-09T03:22:53;96146.13;;;16.05;75.05
71621;BME280;59471;42.254;23.102;2022-09-09T03:25:19;96137.59;;;15.96;75.09
71621;BME280;59471;42.254;23.102;2022-09-09T03:27:45;96140.84;;;15.98;74.79
71621;BME280;59471;42.254;23.102;2022-09-09T03:30:11;96135.53;;;16.12;74.26
71621;BME280;59471;42.254;23.102;2022-09-09T03:32:37;96138.38;;;16.17;73.76
71621;BME280;59471;42.254;23.102;2022-09-09T03:35:03;96131.88;;;16.06;74.13
71621;BME280;59471;42.254;23.102;2022-09-09T03:37:29;96133.72;;;15.92;75.30
71621;BME280;59471;42.254;23.102;2022-09-09T03:39:54;96146.50;;;16.22;74.42
71621;BME280;59471;42.254;23.102;2022-09-09T03:42:20;96144.69;;;16.16;75.54
71621;BME280;59471;42.254;23.102;2022-09-09T03:44:47;96151.75;;;16.49;74.65
71621;BME280;59471;42.254;23.102;2022-09-09T03:47:16;96148.50;;;16.47;74.29
71621;BME280;59471;42.254;23.102;2022-09-09T03:49:43;96140.22;;;15.96;76.08
71621;BME280;59471;42.254;23.102;2022-09-09T03:52:09;96145.28;;;15.91;76.00
71621;BME280;59471;42.254;23.102;2022-09-09T03:54:35;96138.00;;;15.87;76.52
71621;BME280;59471;42.254;23.102;2022-09-09T03:57:01;96141.63;;;16.12;75.59
71621;BME280;59471;42.254;23.102;2022-09-09T03:59:27;96139.19;;;15.97;75.98
71621;BME280;59471;42.254;23.102;2022-09-09T04:01:53;96141.22;;;15.82;76.71
71621;BME280;59471;42.254;23.102;2022-09-09T04:04:20;96140.84;;;15.98;76.11
71621;BME280;59471;42.254;23.102;2022-09-09T04:06:46;96148.75;;;15.85;76.84
71621;BME280;59471;42.254;23.102;2022-09-09T04:09:14;96146.47;;;16.35;74.68
71621;BME280;59471;42.254;23.102;2022-09-09T04:11:40;96145.50;;;16.10;75.08
71621;BME280;59471;42.254;23.102;2022-09-09T04:14:05;96146.91;;;16.19;75.23
71621;BME280;59471;42.254;23.102;2022-09-09T04:16:32;96144.06;;;16.07;75.30
71621;BME280;59471;42.254;23.102;2022-09-09T04:18:58;96151.16;;;16.20;74.82
71621;BME280;59471;42.254;23.102;2022-09-09T04:21:25;96146.13;;;16.12;74.69
71621;BME280;59471;42.254;23.102;2022-09-09T04:23:51;96145.31;;;16.05;74.80
71621;BME280;59471;42.254;23.102;2022-09-09T04:26:17;96143.91;;;15.95;75.05
71621;BME280;59471;42.254;23.102;2022-09-09T04:28:43;96145.09;;;15.86;75.46
71621;BME280;59471;42.254;23.102;2022-09-09T04:31:12;96141.84;;;15.97;75.24
71621;BME280;59471;42.254;23.102;2022-09-09T04:33:41;96148.78;;;15.98;74.92
71621;BME280;59471;42.254;23.102;2022-09-09T04:36:07;96146.50;;;15.82;75.52
71621;BME280;59471;42.254;23.102;2022-09-09T04:38:33;96151.41;;;15.98;75.16
71621;BME280;59471;42.254;23.102;2022-09-09T04:40:59;96170.06;;;16.50;73.30
71621;BME280;59471;42.254;23.102;2022-09-09T04:43:24;96165.53;;;16.64;72.69
71621;BME280;59471;42.254;23.102;2022-09-09T04:45:51;96169.69;;;16.33;73.73
71621;BME280;59471;42.254;23.102;2022-09-09T04:48:18;96167.25;;;15.98;75.03
71621;BME280;59471;42.254;23.102;2022-09-09T04:50:44;96173.34;;;15.92;75.10
71621;BME280;59471;42.254;23.102;2022-09-09T04:53:19;96168.03;;;15.79;75.63
71621;BME280;59471;42.254;23.102;2022-09-09T04:55:45;96167.81;;;15.61;76.99
71621;BME280;59471;42.254;23.102;2022-09-09T04:58:11;96163.16;;;15.69;77.15
71621;BME280;59471;42.254;23.102;2022-09-09T05:00:37;96163.16;;;15.76;76.71
71621;BME280;59471;42.254;23.102;2022-09-09T05:03:03;96158.72;;;15.77;76.49
71621;BME280;59471;42.254;23.102;2022-09-09T05:05:30;96146.31;;;15.84;76.75
71621;BME280;59471;42.254;23.102;2022-09-09T05:08:04;96131.09;;;15.92;77.23
71621;BME280;59471;42.254;23.102;2022-09-09T05:10:31;96131.06;;;16.12;76.79
71621;BME280;59471;42.254;23.102;2022-09-09T05:12:58;96137.97;;;16.33;75.67
71621;BME280;59471;42.254;23.102;2022-09-09T05:15:23;96141.56;;;16.45;75.03
71621;BME280;59471;42.254;23.102;2022-09-09T05:17:49;96137.41;;;16.96;73.24
71621;BME280;59471;42.254;23.102;2022-09-09T05:20:14;96132.78;;;17.23;71.64
71621;BME280;59471;42.254;23.102;2022-09-09T05:22:40;96126.66;;;17.29;71.44
71621;BME280;59471;42.254;23.102;2022-09-09T05:25:06;96131.78;;;17.18;71.65
71621;BME280;59471;42.254;23.102;2022-09-09T05:27:36;96126.38;;;17.06;72.19
71621;BME280;59471;42.254;23.102;2022-09-09T05:30:01;96119.94;;;16.82;73.61
71621;BME280;59471;42.254;23.102;2022-09-09T05:32:29;96117.94;;;16.77;74.59
71621;BME280;59471;42.254;23.102;2022-09-09T05:34:57;96115.38;;;17.02;74.49
71621;BME280;59471;42.254;23.102;2022-09-09T05:37:24;96109.28;;;17.72;71.84
71621;BME280;59471;42.254;23.102;2022-09-09T05:39:49;96112.97;;;17.64;70.77
71621;BME280;59471;42.254;23.102;2022-09-09T05:42:15;96119.19;;;17.51;71.76
71621;BME280;59471;42.254;23.102;2022-09-09T05:44:41;96119.13;;;17.58;71.33
71621;BME280;59471;42.254;23.102;2022-09-09T05:47:08;96115.25;;;17.60;71.31
71621;BME280;59471;42.254;23.102;2022-09-09T05:49:34;96130.50;;;17.65;71.75
71621;BME280;59471;42.254;23.102;2022-09-09T05:52:00;96133.84;;;17.54;73.44
71621;BME280;59471;42.254;23.102;2022-09-09T05:54:26;96130.25;;;17.73;75.11
71621;BME280;59471;42.254;23.102;2022-09-09T05:56:51;96136.75;;;18.02;72.41
71621;BME280;59471;42.254;23.102;2022-09-09T05:59:19;96136.00;;;17.95;74.12
71621;BME280;59471;42.254;23.102;2022-09-09T06:01:45;96128.91;;;18.14;70.48
71621;BME280;59471;42.254;23.102;2022-09-09T06:04:10;96134.66;;;18.11;71.33
71621;BME280;59471;42.254;23.102;2022-09-09T06:06:38;96139.94;;;18.36;69.92
71621;BME280;59471;42.254;23.102;2022-09-09T06:09:07;96135.16;;;18.45;68.98
71621;BME280;59471;42.254;23.102;2022-09-09T06:11:36;96139.69;;;18.38;70.83
71621;BME280;59471;42.254;23.102;2022-09-09T06:14:04;96141.91;;;18.41;70.79
71621;BME280;59471;42.254;23.102;2022-09-09T06:16:30;96140.69;;;18.62;69.63
71621;BME280;59471;42.254;23.102;2022-09-09T06:18:58;96136.78;;;18.46;69.43
71621;BME280;59471;42.254;23.102;2022-09-09T06:21:26;96130.22;;;18.48;69.28
71621;BME280;59471;42.254;23.102;2022-09-09T06:23:53;96131.38;;;18.78;69.05
71621;BME280;59471;42.254;23.102;2022-09-09T06:28:50;96137.97;;;19.24;66.53
71621;BME280;59471;42.254;23.102;2022-09-09T06:31:19;96131.31;;;19.33;66.45
71621;BME280;59471;42.254;23.102;2022-09-09T06:33:47;96129.19;;;19.23;67.48
71621;BME280;59471;42.254;23.102;2022-09-09T06:36:22;96128.06;;;19.31;68.26
71621;BME280;59471;42.254;23.102;2022-09-09T06:38:49;96126.31;;;19.55;67.08
71621;BME280;59471;42.254;23.102;2022-09-09T06:41:17;96124.06;;;19.82;65.84
71621;BME280;59471;42.254;23.102;2022-09-09T06:43:45;96127.56;;;19.94;65.48
71621;BME280;59471;42.254;23.102;2022-09-09T06:48:42;96131.47;;;19.91;66.27
71621;BME280;59471;42.254;23.102;2022-09-09T06:51:21;96125.00;;;19.57;67.30
71621;BME280;59471;42.254;23.102;2022-09-09T06:53:50;96125.44;;;19.73;67.71
71621;BME280;59471;42.254;23.102;2022-09-09T06:56:21;96118.06;;;19.75;67.02
71621;BME280;59471;42.254;23.102;2022-09-09T06:58:49;96124.50;;;19.67;68.04
71621;BME280;59471;42.254;23.102;2022-09-09T07:01:18;96130.47;;;19.62;68.17
71621;BME280;59471;42.254;23.102;2022-09-09T07:03:47;96130.47;;;19.62;68.33
71621;BME280;59471;42.254;23.102;2022-09-09T07:06:26;96125.50;;;19.96;67.17
71621;BME280;59471;42.254;23.102;2022-09-09T07:08:54;96132.63;;;19.84;67.52
71621;BME280;59471;42.254;23.102;2022-09-09T07:11:22;96122.69;;;19.91;67.49
71621;BME280;59471;42.254;23.102;2022-09-09T07:13:52;96131.16;;;20.23;66.51
71621;BME280;59471;42.254;23.102;2022-09-09T07:16:19;96129.53;;;20.10;67.02
71621;BME280;59471;42.254;23.102;2022-09-09T07:18:48;96115.63;;;19.43;70.06
71621;BME280;59471;42.254;23.102;2022-09-09T07:21:16;96110.69;;;19.77;69.34
71621;BME280;59471;42.254;23.102;2022-09-09T07:23:41;96112.91;;;20.15;67.93
71621;BME280;59471;42.254;23.102;2022-09-09T07:26:15;96113.22;;;20.42;66.57
71621;BME280;59471;42.254;23.102;2022-09-09T07:28:42;96108.03;;;20.47;67.02
71621;BME280;59471;42.254;23.102;2022-09-09T07:31:25;96113.19;;;20.89;64.99
71621;BME280;59471;42.254;23.102;2022-09-09T07:33:52;96102.41;;;20.96;65.20
71621;BME280;59471;42.254;23.102;2022-09-09T07:36:21;96107.81;;;21.13;65.17
71621;BME280;59471;42.254;23.102;2022-09-09T07:38:54;96107.09;;;21.46;63.97
71621;BME280;59471;42.254;23.102;2022-09-09T07:41:24;96108.97;;;21.34;63.95
71621;BME280;59471;42.254;23.102;2022-09-09T07:43:50;96105.16;;;21.41;64.49
71621;BME280;59471;42.254;23.102;2022-09-09T07:46:19;96103.53;;;21.40;64.81
71621;BME280;59471;42.254;23.102;2022-09-09T07:48:48;96111.47;;;21.52;62.97
71621;BME280;59471;42.254;23.102;2022-09-09T07:51:18;96112.16;;;21.76;62.81
71621;BME280;59471;42.254;23.102;2022-09-09T07:53:46;96115.56;;;22.22;60.94
71621;BME280;59471;42.254;23.102;2022-09-09T07:56:15;96120.72;;;22.46;58.48
71621;BME280;59471;42.254;23.102;2022-09-09T07:58:44;96113.47;;;22.24;60.82
71621;BME280;59471;42.254;23.102;2022-09-09T08:03:51;96101.56;;;22.49;58.20
71621;BME280;59471;42.254;23.102;2022-09-09T08:06:18;96102.94;;;22.34;58.10
71621;BME280;59471;42.254;23.102;2022-09-09T08:08:44;96099.38;;;22.29;58.89
71621;BME280;59471;42.254;23.102;2022-09-09T08:11:13;96099.88;;;22.26;59.56
71621;BME280;59471;42.254;23.102;2022-09-09T08:13:42;96097.47;;;22.07;59.86
71621;BME280;59471;42.254;23.102;2022-09-09T08:18:35;96106.59;;;22.67;57.95
71621;BME280;59471;42.254;23.102;2022-09-09T08:21:25;96098.25;;;22.85;57.11
71621;BME280;59471;42.254;23.102;2022-09-09T08:23:55;96102.28;;;22.66;58.69
71621;BME280;59471;42.254;23.102;2022-09-09T08:26:24;96113.91;;;22.94;59.27
71621;BME280;59471;42.254;23.102;2022-09-09T08:28:53;96100.53;;;22.94;59.03
71621;BME280;59471;42.254;23.102;2022-09-09T08:31:28;96097.13;;;22.98;58.67
71621;BME280;59471;42.254;23.102;2022-09-09T08:33:56;96104.25;;;22.93;58.60
71621;BME280;59471;42.254;23.102;2022-09-09T08:36:27;96107.84;;;23.25;58.69
71621;BME280;59471;42.254;23.102;2022-09-09T08:38:56;96105.69;;;23.76;55.36
71621;BME280;59471;42.254;23.102;2022-09-09T08:50:26;96091.88;;;24.64;56.30
71621;BME280;59471;42.254;23.102;2022-09-09T08:53:02;96084.34;;;24.61;55.20
71621;BME280;59471;42.254;23.102;2022-09-09T09:11:53;96078.91;;;24.46;57.01
71621;BME280;59471;42.254;23.102;2022-09-09T09:14:27;96066.38;;;24.51;58.04
71621;BME280;59471;42.254;23.102;2022-09-09T09:16:59;96083.38;;;24.83;55.38
71621;BME280;59471;42.254;23.102;2022-09-09T09:19:28;96078.19;;;25.13;54.56
71621;BME280;59471;42.254;23.102;2022-09-09T09:22:04;96073.84;;;25.07;54.37
71621;BME280;59471;42.254;23.102;2022-09-09T09:27:30;96058.22;;;24.84;55.56
71621;BME280;59471;42.254;23.102;2022-09-09T09:30:12;96070.88;;;24.46;57.43
71621;BME280;59471;42.254;23.102;2022-09-09T09:32:53;96065.13;;;24.69;57.73
71621;BME280;59471;42.254;23.102;2022-09-09T09:35:22;96060.25;;;24.61;57.46
71621;BME280;59471;42.254;23.102;2022-09-09T09:37:48;96062.09;;;24.56;58.20
71621;BME280;59471;42.254;23.102;2022-09-09T09:40:20;96054.94;;;24.71;58.17
71621;BME280;59471;42.254;23.102;2022-09-09T09:43:02;96056.56;;;24.72;57.44
71621;BME280;59471;42.254;23.102;2022-09-09T09:45:43;96046.78;;;25.04;56.68
71621;BME280;59471;42.254;23.102;2022-09-09T09:48:13;96043.88;;;25.31;55.42
71621;BME280;59471;42.254;23.102;2022-09-09T09:51:01;96033.75;;;25.63;53.68
71621;BME280;59471;42.254;23.102;2022-09-09T09:53:35;96026.75;;;25.47;52.30
71621;BME280;59471;42.254;23.102;2022-09-09T09:58:53;96022.47;;;25.61;51.58
71621;BME280;59471;42.254;23.102;2022-09-09T10:01:26;96031.84;;;25.69;51.51
71621;BME280;59471;42.254;23.102;2022-09-09T10:04:14;96040.19;;;25.73;51.89
71621;BME280;59471;42.254;23.102;2022-09-09T10:06:41;96037.50;;;25.73;51.55
71621;BME280;59471;42.254;23.102;2022-09-09T10:14:49;96038.59;;;25.82;49.75
71621;BME280;59471;42.254;23.102;2022-09-09T10:23:56;96045.53;;;25.78;49.98
71621;BME280;59471;42.254;23.102;2022-09-09T10:26:47;96047.69;;;25.65;49.23
71621;BME280;59471;42.254;23.102;2022-09-09T10:29:24;96056.28;;;25.57;48.95
71621;BME280;59471;42.254;23.102;2022-09-09T10:43:38;96056.81;;;25.54;48.82
71621;BME280;59471;42.254;23.102;2022-09-09T10:50:01;96051.69;;;25.53;49.22
71621;BME280;59471;42.254;23.102;2022-09-09T10:52:41;96054.66;;;25.56;49.66
71621;BME280;59471;42.254;23.102;2022-09-09T10:55:17;96063.78;;;25.45;50.73
71621;BME280;59471;42.254;23.102;2022-09-09T10:57:47;96068.84;;;25.36;50.89
71621;BME280;59471;42.254;23.102;2022-09-09T11:00:38;96073.97;;;25.58;51.40
71621;BME280;59471;42.254;23.102;2022-09-09T11:03:06;96082.03;;;25.63;53.98
71621;BME280;59471;42.254;23.102;2022-09-09T11:06:01;96082.53;;;25.50;55.12
71621;BME280;59471;42.254;23.102;2022-09-09T11:08:33;96077.69;;;25.47;55.12
71621;BME280;59471;42.254;23.102;2022-09-09T11:13:55;96088.94;;;25.44;55.50
71621;BME280;59471;42.254;23.102;2022-09-09T11:16:25;96078.47;;;25.27;56.16
71621;BME280;59471;42.254;23.102;2022-09-09T11:19:03;96082.47;;;25.19;56.80
71621;BME280;59471;42.254;23.102;2022-09-09T11:21:36;96077.03;;;25.09;56.73
71621;BME280;59471;42.254;23.102;2022-09-09T11:24:12;96078.91;;;25.09;56.48
71621;BME280;59471;42.254;23.102;2022-09-09T11:27:31;96067.94;;;25.00;57.44
71621;BME280;59471;42.254;23.102;2022-09-09T11:30:02;96057.19;;;24.95;57.29
71621;BME280;59471;42.254;23.102;2022-09-09T11:38:26;96044.88;;;24.99;57.12
71621;BME280;59471;42.254;23.102;2022-09-09T11:41:05;96039.50;;;24.99;57.13
71621;BME280;59471;42.254;23.102;2022-09-09T11:46:00;96032.25;;;24.84;58.21
71621;BME280;59471;42.254;23.102;2022-09-09T11:51:09;96028.16;;;24.71;58.67
71621;BME280;59471;42.254;23.102;2022-09-09T11:53:54;96034.69;;;25.01;58.42
71621;BME280;59471;42.254;23.102;2022-09-09T11:56:41;96026.94;;;25.05;57.87
71621;BME280;59471;42.254;23.102;2022-09-09T11:59:24;96029.31;;;24.96;58.59
71621;BME280;59471;42.254;23.102;2022-09-09T12:04:28;96028.81;;;25.09;57.86
71621;BME280;59471;42.254;23.102;2022-09-09T12:12:36;96017.09;;;25.56;56.79
71621;BME280;59471;42.254;23.102;2022-09-09T12:17:52;96006.94;;;25.63;55.72
71621;BME280;59471;42.254;23.102;2022-09-09T12:26:38;96007.97;;;25.47;55.42
71621;BME280;59471;42.254;23.102;2022-09-09T12:34:42;96005.31;;;25.32;56.23
71621;BME280;59471;42.254;23.102;2022-09-09T12:39:59;96004.44;;;25.11;56.84
71621;BME280;59471;42.254;23.102;2022-09-09T12:42:27;96002.53;;;24.96;57.12
71621;BME280;59471;42.254;23.102;2022-09-09T12:44:58;95997.19;;;25.06;56.69
71621;BME280;59471;42.254;23.102;2022-09-09T12:50:16;96001.00;;;25.31;56.05
71621;BME280;59471;42.254;23.102;2022-09-09T12:52:44;95999.38;;;25.25;55.60
71621;BME280;59471;42.254;23.102;2022-09-09T12:55:21;95997.28;;;25.42;56.00
71621;BME280;59471;42.254;23.102;2022-09-09T12:57:51;95997.00;;;25.33;56.20
71621;BME280;59471;42.254;23.102;2022-09-09T13:00:19;96001.81;;;25.26;57.02
71621;BME280;59471;42.254;23.102;2022-09-09T13:02:53;95997.75;;;25.03;55.64
71621;BME280;59471;42.254;23.102;2022-09-09T13:05:26;95991.81;;;25.06;56.06
71621;BME280;59471;42.254;23.102;2022-09-09T13:08:04;96002.00;;;24.99;56.38
71621;BME280;59471;42.254;23.102;2022-09-09T13:10:49;95995.53;;;24.85;57.10
71621;BME280;59471;42.254;23.102;2022-09-09T13:13:26;95985.34;;;24.82;57.12
71621;BME280;59471;42.254;23.102;2022-09-09T13:15:55;95989.03;;;24.60;58.04
71621;BME280;59471;42.254;23.102;2022-09-09T13:18:30;95988.97;;;24.45;58.14
71621;BME280;59471;42.254;23.102;2022-09-09T13:20:59;95989.00;;;24.50;58.46
71621;BME280;59471;42.254;23.102;2022-09-09T13:23:34;95988.53;;;24.73;58.53
71621;BME280;59471;42.254;23.102;2022-09-09T13:26:03;95992.31;;;24.83;59.74
71621;BME280;59471;42.254;23.102;2022-09-09T13:28:31;95989.38;;;24.79;61.02
71621;BME280;59471;42.254;23.102;2022-09-09T13:31:05;95988.03;;;24.87;59.48
71621;BME280;59471;42.254;23.102;2022-09-09T13:33:54;95981.78;;;24.56;62.46
71621;BME280;59471;42.254;23.102;2022-09-09T13:36:32;95977.47;;;24.49;64.16
71621;BME280;59471;42.254;23.102;2022-09-09T13:39:02;95973.88;;;24.28;63.57
71621;BME280;59471;42.254;23.102;2022-09-09T13:41:41;95969.13;;;24.41;64.18
71621;BME280;59471;42.254;23.102;2022-09-09T13:44:36;95957.28;;;24.26;66.53
71621;BME280;59471;42.254;23.102;2022-09-09T13:47:05;95948.72;;;24.24;68.30
71621;BME280;59471;42.254;23.102;2022-09-09T13:49:32;95945.50;;;24.22;68.84
71621;BME280;59471;42.254;23.102;2022-09-09T13:52:13;95930.47;;;24.16;68.32
71621;BME280;59471;42.254;23.102;2022-09-09T13:54:41;95921.59;;;24.00;70.60
71621;BME280;59471;42.254;23.102;2022-09-09T13:57:21;95925.63;;;24.08;71.42
71621;BME280;59471;42.254;23.102;2022-09-09T13:59:50;95930.03;;;24.40;72.26
71621;BME280;59471;42.254;23.102;2022-09-09T14:02:17;95926.16;;;24.88;66.70
71621;BME280;59471;42.254;23.102;2022-09-09T14:04:44;95909.84;;;25.05;64.54
71621;BME280;59471;42.254;23.102;2022-09-09T14:07:17;95906.88;;;24.96;65.07
71621;BME280;59471;42.254;23.102;2022-09-09T14:09:43;95904.47;;;24.90;63.27
71621;BME280;59471;42.254;23.102;2022-09-09T14:12:12;95895.41;;;25.16;63.08
71621;BME280;59471;42.254;23.102;2022-09-09T14:14:39;95893.19;;;24.67;65.71
71621;BME280;59471;42.254;23.102;2022-09-09T14:17:14;95895.09;;;24.72;66.76
71621;BME280;59471;42.254;23.102;2022-09-09T14:19:40;95892.13;;;24.73;65.59
71621;BME280;59471;42.254;23.102;2022-09-09T14:22:05;95888.97;;;25.12;67.30
71621;BME280;59471;42.254;23.102;2022-09-09T14:24:31;95891.09;;;25.31;62.12
71621;BME280;59471;42.254;23.102;2022-09-09T14:26:57;95890.56;;;25.34;62.69
71621;BME280;59471;42.254;23.102;2022-09-09T14:29:22;95886.53;;;25.36;63.13
71621;BME280;59471;42.254;23.102;2022-09-09T14:31:48;95887.06;;;25.49;61.07
71621;BME280;59471;42.254;23.102;2022-09-09T14:34:13;95892.41;;;25.64;61.90
71621;BME280;59471;42.254;23.102;2022-09-09T14:36:40;95878.16;;;25.74;59.97
71621;BME280;59471;42.254;23.102;2022-09-09T14:39:07;95876.00;;;25.86;61.25
71621;BME280;59471;42.254;23.102;2022-09-09T14:41:32;95874.38;;;25.85;58.65
71621;BME280;59471;42.254;23.102;2022-09-09T14:43:58;95878.97;;;25.79;59.13
71621;BME280;59471;42.254;23.102;2022-09-09T14:46:25;95881.38;;;25.81;58.55
71621;BME280;59471;42.254;23.102;2022-09-09T14:48:51;95868.75;;;25.81;58.63
71621;BME280;59471;42.254;23.102;2022-09-09T14:51:20;95877.38;;;25.68;57.88
71621;BME280;59471;42.254;23.102;2022-09-09T14:53:55;95871.22;;;25.52;59.16
71621;BME280;59471;42.254;23.102;2022-09-09T14:56:27;95874.94;;;25.77;60.00
71621;BME280;59471;42.254;23.102;2022-09-09T14:58:55;95871.41;;;25.97;59.64
71621;BME280;59471;42.254;23.102;2022-09-09T15:01:22;95879.50;;;25.86;57.71
71621;BME280;59471;42.254;23.102;2022-09-09T15:03:51;95875.97;;;25.91;58.39
71621;BME280;59471;42.254;23.102;2022-09-09T15:06:19;95881.69;;;25.64;60.17
71621;BME280;59471;42.254;23.102;2022-09-09T15:08:46;95877.13;;;25.44;61.41
71621;BME280;59471;42.254;23.102;2022-09-09T15:11:14;95880.88;;;25.58;62.04
71621;BME280;59471;42.254;23.102;2022-09-09T15:13:42;95877.19;;;25.29;62.74
71621;BME280;59471;42.254;23.102;2022-09-09T15:18:34;95871.28;;;25.16;64.02
71621;BME280;59471;42.254;23.102;2022-09-09T15:21:02;95865.91;;;25.22;63.17
71621;BME280;59471;42.254;23.102;2022-09-09T15:23:34;95867.50;;;24.97;64.95
71621;BME280;59471;42.254;23.102;2022-09-09T15:26:00;95865.34;;;24.84;64.97
71621;BME280;59471;42.254;23.102;2022-09-09T15:28:26;95861.06;;;25.08;64.35
71621;BME280;59471;42.254;23.102;2022-09-09T15:30:53;95867.75;;;25.06;62.21
71621;BME280;59471;42.254;23.102;2022-09-09T15:33:20;95865.88;;;24.70;62.02
71621;BME280;59471;42.254;23.102;2022-09-09T15:35:46;95866.66;;;24.56;64.43
71621;BME280;59471;42.254;23.102;2022-09-09T15:38:12;95866.94;;;24.64;63.79
71621;BME280;59471;42.254;23.102;2022-09-09T15:40:41;95870.69;;;24.68;64.45
71621;BME280;59471;42.254;23.102;2022-09-09T15:43:08;95868.84;;;24.69;65.15
71621;BME280;59471;42.254;23.102;2022-09-09T15:45:35;95872.56;;;24.68;65.51
71621;BME280;59471;42.254;23.102;2022-09-09T15:48:01;95866.94;;;24.64;64.43
71621;BME280;59471;42.254;23.102;2022-09-09T15:50:28;95869.38;;;24.66;65.78
71621;BME280;59471;42.254;23.102;2022-09-09T15:52:56;95870.16;;;24.66;66.88
71621;BME280;59471;42.254;23.102;2022-09-09T15:55:22;95868.56;;;24.70;66.53
71621;BME280;59471;42.254;23.102;2022-09-09T15:57:49;95869.63;;;24.69;66.67
71621;BME280;59471;42.254;23.102;2022-09-09T16:00:17;95877.66;;;24.64;66.23
71621;BME280;59471;42.254;23.102;2022-09-09T16:02:43;95878.69;;;24.48;66.95
71621;BME280;59471;42.254;23.102;2022-09-09T16:05:09;95875.41;;;24.36;67.68